createdAt,value
2022-11-05T00:04:39.785Z,99863.59
2022-11-05T00:09:42.280Z,99774.50
2022-11-05T00:15:03.245Z,99791.69
2022-11-05T00:20:07.494Z,99890.41
2022-11-05T00:25:17.066Z,99874.31
2022-11-05T00:30:24.165Z,99897.31
2022-11-05T00:35:26.319Z,99796.84
2022-11-05T00:40:28.511Z,99892.97
2022-11-05T00:45:31.325Z,99764.72
2022-11-05T00:50:34.184Z,99904.88
2022-11-05T00:55:38.836Z,99899.66
2022-11-05T01:00:45.745Z,99904.00
2022-11-05T01:05:51.020Z,99919.34
2022-11-05T01:10:57.865Z,99901.47
2022-11-05T01:16:06.659Z,99898.91
2022-11-05T01:21:13.383Z,99928.81
2022-11-05T01:26:15.582Z,99899.47
2022-11-05T01:31:17.689Z,99931.22
2022-11-05T01:36:19.819Z,99772.47
2022-11-05T01:41:21.988Z,99924.53
2022-11-05T01:46:28.691Z,99845.34
2022-11-05T01:51:31.267Z,99917.47
2022-11-05T01:56:39.786Z,99876.00
2022-11-05T02:01:42.293Z,99953.34
2022-11-05T02:06:47.693Z,99787.28
2022-11-05T02:11:51.521Z,99960.06
2022-11-05T02:17:14.144Z,99878.47
2022-11-05T02:22:42.934Z,99952.47
2022-11-05T02:28:05.754Z,99958.47
2022-11-05T02:33:11.041Z,99954.81
2022-11-05T02:38:13.917Z,99965.09
2022-11-05T02:43:25.311Z,99967.78
2022-11-05T02:48:56.781Z,99905.47
2022-11-05T02:54:06.541Z,99895.34
2022-11-05T02:59:08.667Z,99855.00
2022-11-05T03:04:12.334Z,99978.00
2022-11-05T03:09:29.058Z,99986.03
2022-11-05T03:14:53.167Z,99983.59
2022-11-05T03:20:15.567Z,99989.66
2022-11-05T03:25:24.365Z,99882.13
2022-11-05T03:30:26.900Z,99996.22
2022-11-05T03:35:36.945Z,99938.34
2022-11-05T03:40:39.733Z,100015.19
2022-11-05T03:45:46.752Z,100029.81
2022-11-05T03:51:04.992Z,100015.53
2022-11-05T03:56:13.020Z,99915.81
2022-11-05T04:01:15.554Z,100034.88
2022-11-05T04:06:36.144Z,99908.91
2022-11-05T04:11:56.889Z,100034.88
2022-11-05T04:17:09.299Z,99985.34
2022-11-05T04:22:29.770Z,99909.31
2022-11-05T04:27:32.036Z,100039.13
2022-11-05T04:32:34.166Z,100019.53
2022-11-05T04:37:36.256Z,100043.47
2022-11-05T04:42:38.399Z,100021.41
2022-11-05T04:47:40.529Z,100044.91
2022-11-05T04:52:42.719Z,99924.00
2022-11-05T04:57:49.047Z,99917.56
2022-11-05T05:02:51.265Z,100058.00
2022-11-05T05:07:53.364Z,100009.03
2022-11-05T05:12:55.655Z,99933.31
2022-11-05T05:17:57.882Z,100045.47
2022-11-05T05:22:59.997Z,100010.81
2022-11-05T05:28:02.829Z,99924.09
2022-11-05T05:33:05.049Z,99975.13
2022-11-05T05:38:10.241Z,100035.41
2022-11-05T05:43:12.503Z,99989.09
2022-11-05T05:48:15.070Z,100085.97
2022-11-05T05:53:17.373Z,99937.38
2022-11-05T05:58:19.498Z,100009.09
2022-11-05T06:03:21.946Z,100031.34
2022-11-05T06:08:24.029Z,99988.59
2022-11-05T06:13:26.746Z,100074.06
2022-11-05T06:18:29.941Z,100031.72
2022-11-05T06:23:33.137Z,100077.84
2022-11-05T06:28:35.372Z,100152.19
2022-11-05T06:33:37.853Z,100128.06
2022-11-05T06:38:39.950Z,100130.63
2022-11-05T06:43:42.143Z,100015.50
2022-11-05T06:48:44.468Z,99997.25
2022-11-05T06:53:46.585Z,100110.94
2022-11-05T06:58:48.817Z,100145.44
2022-11-05T07:03:51.021Z,100040.50
2022-11-05T07:08:53.275Z,100073.69
2022-11-05T07:13:55.367Z,100037.34
2022-11-05T07:18:57.579Z,100175.81
2022-11-05T07:23:59.713Z,100087.94
2022-11-05T07:29:01.871Z,100195.59
2022-11-05T07:34:05.094Z,100114.78
2022-11-05T07:39:07.259Z,100043.50
2022-11-05T07:44:09.483Z,100206.13
2022-11-05T07:49:11.671Z,100152.88
2022-11-05T07:54:13.787Z,100203.53
2022-11-05T07:59:15.837Z,100071.88
2022-11-05T08:04:17.962Z,100185.00
2022-11-05T08:09:20.784Z,100032.97
2022-11-05T08:14:22.993Z,100204.69
2022-11-05T08:19:25.067Z,100100.41
2022-11-05T08:24:27.151Z,100108.13
2022-11-05T08:29:29.266Z,100185.97
2022-11-05T08:34:31.421Z,100176.84
2022-11-05T08:39:33.584Z,100112.63
2022-11-05T08:44:35.662Z,100173.56
2022-11-05T08:49:37.902Z,100204.28
2022-11-05T08:54:40.076Z,100222.94
2022-11-05T08:59:42.141Z,100218.75
2022-11-05T09:04:44.889Z,100148.16
2022-11-05T09:09:46.954Z,100206.88
2022-11-05T09:14:49.234Z,100191.72
2022-11-05T09:19:51.451Z,100095.28
2022-11-05T09:24:53.584Z,100012.19
2022-11-05T09:29:55.912Z,100131.50
2022-11-05T09:35:00.512Z,100196.06
2022-11-05T09:40:02.623Z,100230.50
2022-11-05T09:45:11.220Z,100228.88
2022-11-05T09:50:17.059Z,100169.56
2022-11-05T09:55:28.450Z,100232.44
2022-11-05T10:00:31.790Z,100201.31
2022-11-05T10:05:35.058Z,100069.13
2022-11-05T10:10:41.911Z,100103.78
2022-11-05T10:15:59.643Z,100246.19
2022-11-05T10:21:02.134Z,100209.41
2022-11-05T10:26:09.364Z,100256.38
2022-11-05T10:31:17.778Z,100253.91
2022-11-05T10:36:23.978Z,100258.97
2022-11-05T10:41:44.867Z,100252.03
2022-11-05T10:47:07.052Z,100249.00
2022-11-05T10:52:33.181Z,100130.94
2022-11-05T10:57:39.551Z,100261.53
2022-11-05T11:02:43.300Z,100124.97
2022-11-05T11:08:00.550Z,100142.91
2022-11-05T11:13:03.193Z,100139.41
2022-11-05T11:18:40.282Z,100174.03
2022-11-05T11:23:44.881Z,100198.56
2022-11-05T11:28:49.330Z,100172.31
2022-11-05T11:33:57.819Z,100194.38
2022-11-05T11:39:02.726Z,100189.66
2022-11-05T11:44:16.744Z,100294.19
2022-11-05T11:49:34.338Z,100291.78
2022-11-05T11:54:36.661Z,100225.78
2022-11-05T12:00:07.159Z,100275.63
2022-11-05T12:05:22.784Z,100295.16
2022-11-05T12:10:46.386Z,100299.75
2022-11-05T12:15:58.205Z,100296.75
2022-11-05T12:21:34.823Z,100303.84
2022-11-05T12:26:58.642Z,100295.72
2022-11-05T12:32:31.451Z,100296.75
2022-11-05T12:38:19.971Z,100296.88
2022-11-05T12:43:25.131Z,100306.66
2022-11-05T12:49:03.021Z,100310.28
2022-11-05T12:54:20.905Z,100132.50
2022-11-05T12:59:40.578Z,100326.28
2022-11-05T13:04:58.592Z,100270.72
2022-11-05T13:10:09.658Z,100322.72
2022-11-05T13:15:17.681Z,100321.81
2022-11-05T13:20:22.576Z,100289.38
2022-11-05T13:25:28.542Z,100109.06
2022-11-05T13:30:34.044Z,100117.81
2022-11-05T13:35:45.717Z,100293.88
2022-11-05T13:41:05.041Z,100338.34
2022-11-05T13:46:10.109Z,100347.56
2022-11-05T13:51:38.827Z,100169.53
2022-11-05T13:56:50.825Z,100352.88
2022-11-05T14:02:18.176Z,100372.91
2022-11-05T14:07:37.163Z,100380.63
2022-11-05T14:12:40.352Z,100239.28
2022-11-05T14:17:56.264Z,100374.88
2022-11-05T14:23:23.434Z,100377.88
2022-11-05T14:28:34.917Z,100373.59
2022-11-05T14:33:40.288Z,100352.88
2022-11-05T14:38:50.983Z,100375.38
2022-11-05T14:44:06.406Z,100377.03
2022-11-05T14:49:22.966Z,100328.22
2022-11-05T14:54:29.889Z,100299.22
2022-11-05T14:59:34.638Z,100387.06
2022-11-05T15:04:40.869Z,100258.50
2022-11-05T15:09:59.743Z,100364.38
2022-11-05T15:15:21.219Z,100351.50
2022-11-05T15:20:39.957Z,100301.81
2022-11-05T15:26:00.404Z,100381.81
2022-11-05T15:31:14.752Z,100397.91
2022-11-05T15:36:16.936Z,100398.81
2022-11-05T15:41:22.689Z,100349.56
2022-11-05T15:46:28.404Z,100406.44
2022-11-05T15:51:30.844Z,100320.88
2022-11-05T15:56:39.231Z,100344.97
2022-11-05T16:02:14.257Z,100420.00
2022-11-05T16:07:17.097Z,100361.38
2022-11-05T16:12:19.647Z,100416.13
2022-11-05T16:17:24.152Z,100413.63
2022-11-05T16:22:26.371Z,100414.50
2022-11-05T16:27:28.578Z,100416.19
2022-11-05T16:32:35.076Z,100339.13
2022-11-05T16:37:40.167Z,100312.63
2022-11-05T16:42:43.107Z,100420.28
2022-11-05T16:47:46.116Z,100310.69
2022-11-05T16:52:48.603Z,100383.41
2022-11-05T16:57:55.095Z,100368.72
2022-11-05T17:02:57.584Z,100430.50
2022-11-05T17:08:01.427Z,100382.56
2022-11-05T17:13:04.053Z,100418.19
2022-11-05T17:18:06.524Z,100345.53
2022-11-05T17:23:11.464Z,100332.84
2022-11-05T17:28:14.814Z,100420.56
2022-11-05T17:33:18.155Z,100373.34
2022-11-05T17:38:24.775Z,100433.97
2022-11-05T17:43:27.094Z,100312.22
2022-11-05T17:48:29.887Z,100319.47
2022-11-05T17:53:32.209Z,100368.94
2022-11-05T17:58:34.939Z,100271.09
2022-11-05T18:03:37.333Z,100385.22
2022-11-05T18:08:39.869Z,100373.69
2022-11-05T18:13:42.105Z,100301.22
2022-11-05T18:18:44.272Z,100319.47
2022-11-05T18:23:46.489Z,100384.00
2022-11-05T18:28:48.780Z,100433.28
2022-11-05T18:33:51.641Z,100329.88
2022-11-05T18:38:54.386Z,100424.16
2022-11-05T18:44:01.890Z,100365.38
2022-11-05T18:49:04.281Z,100167.03
2022-11-05T18:54:07.530Z,100455.44
2022-11-05T18:59:35.249Z,100271.06
2022-11-05T19:04:32.254Z,100181.03
2022-11-05T19:09:35.652Z,100449.09
2022-11-05T19:14:38.137Z,100406.25
2022-11-05T19:19:40.442Z,100437.19
2022-11-05T19:24:42.680Z,100394.44
2022-11-05T19:29:44.993Z,100386.34
2022-11-05T19:34:47.729Z,100462.47
2022-11-05T19:39:49.939Z,100416.94
2022-11-05T19:44:52.257Z,100416.19
2022-11-05T19:49:54.419Z,100392.19
2022-11-05T19:54:56.738Z,100334.69
2022-11-05T19:59:58.930Z,100397.13
2022-11-05T20:05:01.324Z,100205.56
2022-11-05T20:10:06.448Z,100416.09
2022-11-05T20:15:08.982Z,100450.59
2022-11-05T20:20:11.769Z,100277.69
2022-11-05T20:25:14.208Z,100127.69
2022-11-05T20:30:16.588Z,100332.72
2022-11-05T20:35:18.792Z,100415.31
2022-11-05T20:40:20.951Z,100444.06
2022-11-05T20:45:23.129Z,100424.75
2022-11-05T20:50:25.261Z,100411.16
2022-11-05T20:55:27.382Z,100494.97
2022-11-05T21:00:29.508Z,100352.94
2022-11-05T21:05:35.477Z,100493.00
2022-11-05T21:10:38.434Z,100381.84
2022-11-05T21:15:49.070Z,100338.84
2022-11-05T21:20:51.358Z,100441.09
2022-11-05T21:25:53.575Z,100415.91
2022-11-05T21:31:01.032Z,100411.41
2022-11-05T21:36:09.119Z,100355.00
2022-11-05T21:41:12.630Z,100496.34
2022-11-05T21:46:14.835Z,100407.28
2022-11-05T21:51:35.341Z,100427.09
2022-11-05T21:56:56.543Z,100237.84
2022-11-05T22:02:01.910Z,100516.41
2022-11-05T22:07:05.330Z,100417.91
2022-11-05T22:12:08.141Z,100514.53
2022-11-05T22:17:11.226Z,100470.97
2022-11-05T22:22:13.738Z,100313.44
2022-11-05T22:27:18.078Z,100332.78
2022-11-05T22:32:20.230Z,100302.53
2022-11-05T22:37:22.930Z,100352.53
2022-11-05T22:42:25.069Z,100406.03
2022-11-05T22:47:27.264Z,100284.75
2022-11-05T22:52:29.368Z,100512.81
2022-11-05T22:57:31.471Z,100559.94
2022-11-05T23:02:33.658Z,100329.56
2022-11-05T23:07:56.315Z,100495.41
2022-11-05T23:12:58.456Z,100469.69
2022-11-05T23:18:18.994Z,100367.81
2022-11-05T23:23:39.699Z,100393.06
2022-11-05T23:28:41.856Z,100504.97
2022-11-05T23:33:44.016Z,100534.97
2022-11-05T23:38:46.157Z,100419.19
2022-11-05T23:44:20.448Z,100528.06
2022-11-05T23:49:22.572Z,100346.44
2022-11-05T23:54:24.699Z,100534.34
2022-11-05T23:59:26.867Z,100498.28
